Time;durP1;ratioP1;P1;durP2;ratioP2;P2;SDS_P1;SDS_P2;PMS_P1;PMS_P2;Temp;Humidity;BMP_temperature;BMP_pressure;BME280_temperature;BME280_humidity;BME280_pressure;Samples;Min_cycle;Max_cycle;Signal;HPM_P1;HPM_P2
2023/09/07 00:00:35;;;;;;;4.60;2.45;;;23.00;73.90;;;;;;4973677;28;20027;-83
2023/09/07 00:03:01;;;;;;;4.38;2.15;;;22.90;74.00;;;;;;4973442;28;20081;-84
2023/09/07 00:05:27;;;;;;;5.22;2.30;;;22.90;74.20;;;;;;4973642;28;20046;-84
2023/09/07 00:07:52;;;;;;;3.17;1.80;;;22.90;74.30;;;;;;4973429;28;20497;-83
2023/09/07 00:10:18;;;;;;;4.93;1.77;;;22.90;74.50;;;;;;4973546;28;20042;-83
2023/09/07 00:12:44;;;;;;;8.20;2.72;;;22.70;74.50;;;;;;4973599;28;20106;-84
2023/09/07 00:15:10;;;;;;;4.03;2.25;;;22.70;74.60;;;;;;4973586;28;20031;-83
2023/09/07 00:17:36;;;;;;;4.15;1.90;;;22.70;74.70;;;;;;4956112;28;20066;-84
2023/09/07 00:20:14;;;;;;;6.60;2.10;;;22.70;74.80;;;;;;4956036;28;20031;-84
2023/09/07 00:22:39;;;;;;;4.30;2.30;;;22.70;75.00;;;;;;4976459;28;20160;-84
2023/09/07 00:25:06;;;;;;;4.22;2.10;;;22.60;75.00;;;;;;4977355;28;20473;-84
2023/09/07 00:27:35;;;;;;;4.63;2.47;;;22.60;75.20;;;;;;4977700;28;20512;-84
2023/09/07 00:30:01;;;;;;;5.30;2.70;;;22.50;75.40;;;;;;4960124;28;20045;-84
2023/09/07 00:32:27;;;;;;;3.97;2.38;;;22.50;75.60;;;;;;4977502;28;20106;-83
2023/09/07 00:34:52;;;;;;;8.82;2.78;;;22.50;75.70;;;;;;4977225;28;20055;-84
2023/09/07 00:37:18;;;;;;;5.55;2.72;;;22.40;75.80;;;;;;4977278;28;20447;-84
2023/09/07 00:39:43;;;;;;;7.05;2.78;;;22.40;76.00;;;;;;4959622;28;20059;-84
2023/09/07 00:42:09;;;;;;;10.15;3.13;;;22.40;76.10;;;;;;4959763;28;20105;-84
2023/09/07 00:44:34;;;;;;;6.13;2.67;;;22.30;76.20;;;;;;4992064;28;20366;-84
2023/09/07 00:47:00;;;;;;;5.28;2.53;;;22.20;76.30;;;;;;4977408;28;20045;-84
2023/09/07 00:49:26;;;;;;;4.35;2.60;;;22.20;76.50;;;;;;4977007;28;20031;-84
2023/09/07 00:51:52;;;;;;;4.57;2.47;;;22.10;76.60;;;;;;4959591;28;20062;-83
2023/09/07 00:54:19;;;;;;;4.53;2.53;;;22.20;76.80;;;;;;4976897;28;20090;-84
2023/09/07 00:56:44;;;;;;;6.70;3.10;;;22.10;76.90;;;;;;4976870;28;20031;-83
2023/09/07 00:59:11;;;;;;;5.90;3.00;;;22.20;77.10;;;;;;4976890;28;20089;-84
2023/09/07 01:01:37;;;;;;;6.45;3.03;;;22.00;77.30;;;;;;4977042;28;20510;-84
2023/09/07 01:04:03;;;;;;;4.68;2.08;;;22.00;77.40;;;;;;4976485;28;20031;-84
2023/09/07 01:06:42;;;;;;;5.82;2.53;;;22.00;77.70;;;;;;4976406;28;20039;-84
2023/09/07 01:09:14;;;;;;;6.03;2.63;;;21.90;77.90;;;;;;4976442;28;20035;-84
2023/09/07 01:11:39;;;;;;;5.43;2.50;;;21.90;78.00;;;;;;4976579;28;20111;-84
2023/09/07 01:14:05;;;;;;;6.65;2.70;;;21.80;78.10;;;;;;4976379;28;20085;-84
2023/09/07 01:16:35;;;;;;;6.38;2.90;;;21.80;78.30;;;;;;4976493;28;20528;-85
2023/09/07 01:19:01;;;;;;;5.00;2.50;;;21.80;78.50;;;;;;4976461;28;20022;-84
2023/09/07 01:21:35;;;;;;;4.70;3.13;;;21.80;78.60;;;;;;4976340;28;20026;-84
2023/09/07 01:24:02;;;;;;;5.22;2.58;;;21.70;78.60;;;;;;4975831;28;20090;-84
2023/09/07 01:26:28;;;;;;;5.50;2.45;;;21.70;78.70;;;;;;4976196;28;20121;-84
2023/09/07 01:28:53;;;;;;;4.65;2.70;;;21.60;78.80;;;;;;4958842;28;20477;-84
2023/09/07 01:31:19;;;;;;;5.95;3.00;;;21.70;79.00;;;;;;4976368;28;20035;-85
2023/09/07 01:33:44;;;;;;;6.13;2.97;;;21.60;79.00;;;;;;4958825;28;20057;-84
2023/09/07 01:36:10;;;;;;;6.85;3.42;;;21.60;79.20;;;;;;4975969;28;20034;-84
2023/09/07 01:38:36;;;;;;;4.93;2.83;;;21.60;79.30;;;;;;4976073;28;20034;-83
2023/09/07 01:41:01;;;;;;;5.30;3.10;;;21.40;79.30;;;;;;4975756;28;20026;-84
2023/09/07 01:43:27;;;;;;;7.45;3.00;;;21.60;79.50;;;;;;4975745;28;20058;-84
2023/09/07 01:45:52;;;;;;;4.25;2.53;;;21.40;79.50;;;;;;4958569;28;20054;-83
2023/09/07 01:48:18;;;;;;;6.57;3.15;;;21.30;79.60;;;;;;4958117;28;20023;-83
2023/09/07 01:50:43;;;;;;;6.40;3.17;;;21.40;79.80;;;;;;4976042;28;20031;-84
2023/09/07 01:53:09;;;;;;;7.65;2.95;;;21.30;79.90;;;;;;4975949;28;20085;-83
2023/09/07 01:55:34;;;;;;;7.32;3.50;;;21.30;80.10;;;;;;4975652;28;20499;-84
2023/09/07 01:58:00;;;;;;;6.38;3.40;;;21.30;80.80;;;;;;4975655;28;20504;-84
2023/09/07 02:00:26;;;;;;;5.18;3.17;;;21.20;80.30;;;;;;4975838;28;20396;-83
2023/09/07 02:02:51;;;;;;;6.60;3.05;;;21.20;80.50;;;;;;4975468;28;20038;-83
2023/09/07 02:05:17;;;;;;;5.82;3.58;;;21.20;80.70;;;;;;4975477;28;20030;-84
2023/09/07 02:07:46;;;;;;;6.53;3.03;;;21.20;80.90;;;;;;4975931;28;20050;-83
2023/09/07 02:10:12;;;;;;;5.40;2.90;;;21.20;81.10;;;;;;4975740;28;20023;-83
2023/09/07 02:12:37;;;;;;;9.98;3.47;;;21.10;81.20;;;;;;4975504;28;20482;-83
2023/09/07 02:15:05;;;;;;;5.47;3.38;;;21.10;81.30;;;;;;4957903;28;20473;-84
2023/09/07 02:17:30;;;;;;;7.25;3.67;;;21.00;81.30;;;;;;4975390;28;20023;-83
2023/09/07 02:19:56;;;;;;;5.75;3.22;;;21.00;81.40;;;;;;4975024;28;20038;-84
2023/09/07 02:22:22;;;;;;;6.57;3.00;;;21.00;81.50;;;;;;4974973;28;20026;-84
2023/09/07 02:24:47;;;;;;;4.65;3.17;;;20.90;81.60;;;;;;4975410;28;20081;-83
2023/09/07 02:27:13;;;;;;;5.78;3.47;;;21.00;81.80;;;;;;4975115;28;20125;-84
2023/09/07 02:29:38;;;;;;;6.35;3.75;;;20.90;81.90;;;;;;4975366;28;20026;-84
2023/09/07 02:32:04;;;;;;;7.07;3.38;;;20.80;81.90;;;;;;4975055;28;20042;-84
2023/09/07 02:34:30;;;;;;;5.25;3.20;;;20.80;82.20;;;;;;4974822;28;20035;-83
2023/09/07 02:36:56;;;;;;;6.18;3.88;;;20.90;82.40;;;;;;4974624;28;20085;-83
2023/09/07 02:39:26;;;;;;;6.80;3.83;;;20.70;82.30;;;;;;4974783;28;20395;-83
2023/09/07 02:41:52;;;;;;;6.97;3.58;;;20.80;82.50;;;;;;4989503;28;20026;-84
2023/09/07 02:44:17;;;;;;;5.00;3.00;;;20.70;82.50;;;;;;4974136;28;20377;-84
2023/09/07 02:46:43;;;;;;;6.32;3.38;;;20.60;82.50;;;;;;4974818;28;20035;-84
2023/09/07 02:49:09;;;;;;;6.20;3.50;;;20.60;82.60;;;;;;4974991;28;20030;-83
2023/09/07 02:51:35;;;;;;;6.05;3.08;;;20.60;82.80;;;;;;4974910;28;20026;-83
2023/09/07 02:54:02;;;;;;;5.43;3.47;;;20.60;82.90;;;;;;4974772;28;20023;-84
2023/09/07 02:56:27;;;;;;;6.30;3.40;;;20.50;83.00;;;;;;4975011;28;20037;-84
2023/09/07 02:58:53;;;;;;;7.18;3.28;;;20.50;83.10;;;;;;4974288;28;20027;-82
2023/09/07 03:01:20;;;;;;;5.47;3.13;;;20.50;83.30;;;;;;4974823;28;20666;-83
2023/09/07 03:03:46;;;;;;;5.03;3.40;;;20.50;83.40;;;;;;4974515;28;20505;-84
2023/09/07 03:06:13;;;;;;;6.80;3.60;;;20.50;83.50;;;;;;4974543;28;20089;-84
2023/09/07 03:08:43;;;;;;;6.53;3.42;;;20.40;83.60;;;;;;4974371;28;20033;-84
2023/09/07 03:11:09;;;;;;;6.38;3.00;;;20.40;83.80;;;;;;4974329;28;20050;-83
2023/09/07 03:13:35;;;;;;;4.45;3.00;;;20.20;83.70;;;;;;4974430;28;20065;-84
2023/09/07 03:16:02;;;;;;;5.32;3.42;;;20.40;84.00;;;;;;4957427;28;20111;-83
2023/09/07 03:18:28;;;;;;;6.70;3.53;;;20.30;84.00;;;;;;4956817;28;20030;-83
2023/09/07 03:20:55;;;;;;;7.60;3.67;;;20.30;84.20;;;;;;4974386;28;20033;-83
2023/09/07 03:23:22;;;;;;;6.10;3.65;;;20.20;84.30;;;;;;4974069;28;20141;-84
2023/09/07 03:25:48;;;;;;;7.15;3.88;;;20.20;84.30;;;;;;4956448;28;20085;-83
2023/09/07 03:28:14;;;;;;;7.70;3.55;;;20.10;84.40;;;;;;4973856;28;20027;-83
2023/09/07 03:30:40;;;;;;;5.78;3.33;;;20.20;84.60;;;;;;4974064;28;20084;-84
2023/09/07 03:33:06;;;;;;;7.95;3.97;;;20.20;84.70;;;;;;4974466;28;20034;-84
2023/09/07 03:35:32;;;;;;;7.00;3.78;;;20.10;84.70;;;;;;4974106;28;20449;-83
2023/09/07 03:37:58;;;;;;;6.40;4.25;;;20.20;84.90;;;;;;4973817;28;20031;-84
2023/09/07 03:40:24;;;;;;;6.70;3.28;;;20.10;84.90;;;;;;4956492;28;20503;-83
2023/09/07 03:42:50;;;;;;;7.57;3.63;;;20.00;84.90;;;;;;4973812;28;20507;-84
2023/09/07 03:45:15;;;;;;;5.40;3.63;;;20.10;85.00;;;;;;4973825;28;20384;-83
2023/09/07 03:47:41;;;;;;;5.88;3.58;;;20.00;85.10;;;;;;4973882;28;20042;-84
2023/09/07 03:50:08;;;;;;;5.97;3.60;;;19.90;85.10;;;;;;4974000;28;20400;-84
2023/09/07 03:52:33;;;;;;;6.93;4.13;;;19.90;85.30;;;;;;4973899;28;20034;-84
2023/09/07 03:55:00;;;;;;;5.90;3.53;;;19.90;85.40;;;;;;4973571;28;20023;-84
2023/09/07 03:57:26;;;;;;;7.18;4.05;;;19.80;85.40;;;;;;4973105;28;20038;-84
2023/09/07 03:59:51;;;;;;;7.95;3.47;;;19.90;85.60;;;;;;4956044;28;20023;-83
2023/09/07 04:02:17;;;;;;;5.97;3.70;;;19.90;85.60;;;;;;4973592;28;20550;-83
2023/09/07 04:04:44;;;;;;;6.90;4.20;;;19.80;85.60;;;;;;4955975;28;20019;-83
2023/09/07 04:07:09;;;;;;;5.93;3.28;;;19.80;85.70;;;;;;4973259;28;20473;-83
2023/09/07 04:09:35;;;;;;;7.30;3.80;;;19.80;85.80;;;;;;4973865;28;20027;-83
2023/09/07 04:12:00;;;;;;;7.90;3.92;;;19.80;85.80;;;;;;4973507;28;20035;-83
2023/09/07 04:14:28;;;;;;;9.13;4.45;;;19.80;85.90;;;;;;4973532;28;20031;-83
2023/09/07 04:16:53;;;;;;;7.97;4.00;;;19.80;86.00;;;;;;4955891;28;20480;-83
2023/09/07 04:19:19;;;;;;;5.95;3.65;;;19.80;86.00;;;;;;4973470;28;20034;-82
2023/09/07 04:21:44;;;;;;;6.90;3.85;;;19.70;85.90;;;;;;4973294;28;20484;-83
2023/09/07 04:24:10;;;;;;;6.57;4.07;;;19.70;85.90;;;;;;4973151;28;20047;-84
2023/09/07 04:26:37;;;;;;;7.55;3.80;;;19.70;86.00;;;;;;4955748;28;20039;-84
2023/09/07 04:29:03;;;;;;;5.60;3.65;;;19.60;86.00;;;;;;4973436;28;20034;-83
2023/09/07 04:31:29;;;;;;;6.15;3.90;;;19.70;86.20;;;;;;4987818;28;20027;-83
2023/09/07 04:33:55;;;;;;;6.03;4.10;;;19.60;86.20;;;;;;4973588;28;20031;-83
2023/09/07 04:36:20;;;;;;;7.22;3.50;;;19.50;86.30;;;;;;4973252;28;20038;-84
2023/09/07 04:38:46;;;;;;;7.82;3.60;;;19.50;86.40;;;;;;4955783;28;20030;-85
2023/09/07 04:41:12;;;;;;;6.85;4.07;;;19.60;86.50;;;;;;4956135;28;20026;-83
2023/09/07 04:43:40;;;;;;;7.10;3.58;;;19.60;86.60;;;;;;4973283;28;20446;-83
2023/09/07 04:46:06;;;;;;;6.90;4.32;;;19.50;86.70;;;;;;4972959;28;20034;-83
2023/09/07 04:48:34;;;;;;;6.70;3.40;;;19.60;86.70;;;;;;4974764;28;20030;-84
2023/09/07 04:51:03;;;;;;;6.00;3.75;;;19.50;86.70;;;;;;4974931;28;20022;-84
2023/09/07 04:53:31;;;;;;;6.72;4.10;;;19.50;86.80;;;;;;4974882;28;20026;-84
2023/09/07 04:55:59;;;;;;;6.18;4.10;;;19.40;86.80;;;;;;4969548;28;20029;-84
2023/09/07 04:58:25;;;;;;;8.23;3.80;;;19.40;86.90;;;;;;4988518;28;20042;-84
2023/09/07 05:00:51;;;;;;;8.48;4.10;;;19.40;86.90;;;;;;4973523;28;20062;-84
2023/09/07 05:03:17;;;;;;;6.38;3.58;;;19.40;87.00;;;;;;4973259;28;20023;-83
2023/09/07 05:05:46;;;;;;;5.32;3.50;;;19.40;87.10;;;;;;4991559;28;20060;-80
2023/09/07 05:08:11;;;;;;;7.15;3.85;;;19.30;87.10;;;;;;5012896;28;20250;-82
2023/09/07 05:10:38;;;;;;;7.10;4.15;;;19.30;87.20;;;;;;4993846;28;20027;-82
2023/09/07 05:13:03;;;;;;;6.53;3.50;;;19.30;87.40;;;;;;4995079;28;20026;-81
2023/09/07 05:15:29;;;;;;;6.40;3.95;;;19.30;87.50;;;;;;4992984;28;20085;-82
2023/09/07 05:17:55;;;;;;;9.02;4.60;;;19.20;87.50;;;;;;4998330;28;20007;-81
2023/09/07 05:20:21;;;;;;;7.38;4.25;;;19.20;87.60;;;;;;5000041;28;20041;-83
2023/09/07 05:22:47;;;;;;;10.32;4.35;;;19.20;87.80;;;;;;4989846;28;20039;-83
2023/09/07 05:25:13;;;;;;;7.07;4.30;;;19.20;87.90;;;;;;4984918;28;20027;-83
2023/09/07 05:27:38;;;;;;;8.15;4.45;;;19.10;88.00;;;;;;4978033;28;20030;-84
2023/09/07 05:30:06;;;;;;;7.32;4.20;;;19.10;88.10;;;;;;4976852;28;20031;-84
2023/09/07 05:32:31;;;;;;;8.57;3.78;;;19.20;88.30;;;;;;4969297;28;20065;-84
2023/09/07 05:34:57;;;;;;;6.95;4.35;;;19.20;88.40;;;;;;4994517;28;20027;-84
2023/09/07 05:37:22;;;;;;;6.72;4.43;;;19.10;88.40;;;;;;4977164;28;20032;-84
2023/09/07 05:39:51;;;;;;;6.10;3.95;;;19.10;88.40;;;;;;4993908;28;20033;-84
2023/09/07 05:42:16;;;;;;;6.60;4.28;;;19.20;88.50;;;;;;4994872;28;20030;-84
2023/09/07 05:44:42;;;;;;;7.00;4.22;;;19.20;88.60;;;;;;4994585;28;20500;-84
2023/09/07 05:47:08;;;;;;;6.88;4.50;;;19.20;88.60;;;;;;4991504;28;20046;-84
2023/09/07 05:49:33;;;;;;;7.93;3.95;;;19.20;88.70;;;;;;4994825;28;20029;-84
2023/09/07 05:51:59;;;;;;;6.45;3.97;;;19.30;88.80;;;;;;4994598;28;20034;-84
2023/09/07 05:54:24;;;;;;;5.88;3.78;;;19.30;88.90;;;;;;4994905;28;20033;-83
2023/09/07 05:56:50;;;;;;;7.05;4.07;;;19.30;88.90;;;;;;4973459;28;20097;-84
2023/09/07 05:59:15;;;;;;;7.72;4.25;;;19.30;88.90;;;;;;4975242;28;20054;-84
2023/09/07 06:01:41;;;;;;;7.97;4.43;;;19.30;88.90;;;;;;4976845;28;20035;-83
2023/09/07 06:04:07;;;;;;;6.60;4.32;;;19.30;88.90;;;;;;4995302;28;20085;-84
2023/09/07 06:06:33;;;;;;;6.25;3.90;;;19.40;88.90;;;;;;4994831;28;20562;-85
2023/09/07 06:08:59;;;;;;;8.85;4.15;;;19.30;88.90;;;;;;4995679;28;20109;-85
2023/09/07 06:11:25;;;;;;;6.97;3.92;;;19.30;88.90;;;;;;4994785;28;20124;-85
2023/09/07 06:13:51;;;;;;;7.95;4.25;;;19.40;88.90;;;;;;4981689;28;20034;-84
2023/09/07 06:16:16;;;;;;;7.78;3.85;;;19.50;89.00;;;;;;4990242;28;20030;-85
2023/09/07 06:18:42;;;;;;;9.32;4.80;;;19.50;89.00;;;;;;4976691;28;20443;-86
2023/09/07 06:21:08;;;;;;;7.22;4.40;;;19.50;89.00;;;;;;4994859;28;20030;-85
2023/09/07 06:23:33;;;;;;;6.43;3.90;;;19.60;89.00;;;;;;4992651;28;20078;-85
2023/09/07 06:25:59;;;;;;;6.00;4.38;;;19.60;89.00;;;;;;4974522;28;20051;-85
2023/09/07 06:28:25;;;;;;;7.13;4.20;;;19.60;88.90;;;;;;4975295;28;20101;-85
2023/09/07 06:30:51;;;;;;;7.25;4.68;;;19.70;88.90;;;;;;4974981;28;20034;-85
2023/09/07 06:33:17;;;;;;;6.65;4.55;;;19.60;88.90;;;;;;4957477;28;20057;-85
2023/09/07 06:35:42;;;;;;;7.32;4.55;;;19.70;88.90;;;;;;4975002;28;20034;-86
2023/09/07 06:38:08;;;;;;;7.03;3.97;;;19.80;88.90;;;;;;4975528;28;20031;-84
2023/09/07 06:40:33;;;;;;;11.55;4.82;;;19.70;88.80;;;;;;4957631;28;20505;-84
2023/09/07 06:43:00;;;;;;;9.48;5.00;;;19.80;88.80;;;;;;4974537;28;20027;-83
2023/09/07 06:45:25;;;;;;;7.00;4.80;;;19.80;88.70;;;;;;4974664;28;20030;-83
2023/09/07 06:47:51;;;;;;;7.30;4.07;;;19.80;88.60;;;;;;4974717;28;20031;-83
2023/09/07 06:50:17;;;;;;;6.78;4.57;;;19.90;88.70;;;;;;4973409;28;20520;-84
2023/09/07 06:52:42;;;;;;;7.80;4.82;;;19.90;88.60;;;;;;4975200;28;20051;-86
2023/09/07 06:55:09;;;;;;;9.93;4.88;;;20.00;88.60;;;;;;4974035;28;20023;-85
2023/09/07 06:57:35;;;;;;;9.13;4.60;;;20.00;88.50;;;;;;4974660;28;20033;-87
2023/09/07 07:00:01;;;;;;;6.45;4.13;;;20.00;88.30;;;;;;4957814;28;20022;-86
2023/09/07 07:02:26;;;;;;;11.38;4.28;;;20.00;88.20;;;;;;4975170;28;20038;-86
2023/09/07 07:04:52;;;;;;;5.65;4.18;;;20.10;88.00;;;;;;4973308;28;20556;-85
2023/09/07 07:07:18;;;;;;;8.20;4.40;;;20.30;88.00;;;;;;4974474;28;20038;-84
2023/09/07 07:09:43;;;;;;;6.90;4.20;;;20.10;87.70;;;;;;4974600;28;20026;-85
2023/09/07 07:12:09;;;;;;;8.75;4.55;;;20.20;87.60;;;;;;4987100;28;20030;-84
2023/09/07 07:14:35;;;;;;;8.43;4.53;;;20.30;87.50;;;;;;4975981;28;20496;-84
2023/09/07 07:17:04;;;;;;;13.50;4.53;;;20.20;87.30;;;;;;4976215;28;20435;-84
2023/09/07 07:19:30;;;;;;;7.55;4.35;;;20.30;87.10;;;;;;4992197;28;20083;-85
2023/09/07 07:21:56;;;;;;;9.02;4.68;;;20.30;87.00;;;;;;4993525;28;20452;-85
2023/09/07 07:24:21;;;;;;;7.65;4.22;;;20.40;86.90;;;;;;4993737;28;20174;-85
2023/09/07 07:26:47;;;;;;;8.20;4.10;;;20.50;86.90;;;;;;4994587;28;20035;-85
2023/09/07 07:29:13;;;;;;;7.70;4.45;;;20.50;86.60;;;;;;4994668;28;20035;-85
2023/09/07 07:31:39;;;;;;;7.07;3.67;;;20.60;86.50;;;;;;4977161;28;20480;-85
2023/09/07 07:34:04;;;;;;;6.35;4.43;;;20.60;86.30;;;;;;4978116;28;20026;-85
2023/09/07 07:36:30;;;;;;;6.72;4.32;;;20.60;86.20;;;;;;4994580;28;20550;-85
2023/09/07 07:38:56;;;;;;;7.88;3.80;;;20.70;86.10;;;;;;4994847;28;20033;-85
2023/09/07 07:41:22;;;;;;;7.32;4.22;;;20.70;85.80;;;;;;4977041;28;20037;-85
2023/09/07 07:43:47;;;;;;;6.32;3.45;;;20.80;85.60;;;;;;4994128;28;20023;-85
2023/09/07 07:46:15;;;;;;;6.13;3.25;;;20.80;85.30;;;;;;4991274;28;20081;-85
2023/09/07 07:48:41;;;;;;;6.50;3.70;;;20.90;85.20;;;;;;4992147;28;20018;-84
2023/09/07 07:51:08;;;;;;;6.75;3.92;;;20.90;85.00;;;;;;4975528;28;20026;-85
2023/09/07 07:53:34;;;;;;;10.05;4.32;;;21.00;84.80;;;;;;4976666;28;20023;-85
2023/09/07 07:56:00;;;;;;;6.60;3.78;;;21.00;84.70;;;;;;4994093;28;20023;-85
2023/09/07 07:58:26;;;;;;;7.25;3.63;;;21.10;84.60;;;;;;4994484;28;20480;-85
2023/09/07 08:00:52;;;;;;;7.70;3.70;;;21.10;84.40;;;;;;4994220;28;20033;-85
2023/09/07 08:03:17;;;;;;;7.00;3.60;;;21.20;84.20;;;;;;4994072;28;20022;-85
2023/09/07 08:05:43;;;;;;;7.05;3.95;;;21.20;84.00;;;;;;4992959;28;20348;-85
2023/09/07 08:08:09;;;;;;;7.38;4.05;;;21.30;83.80;;;;;;4975592;28;20434;-84
2023/09/07 08:10:36;;;;;;;7.07;3.60;;;21.40;83.70;;;;;;4993614;28;20023;-85
2023/09/07 08:13:02;;;;;;;6.43;3.72;;;21.40;83.60;;;;;;4992524;28;20033;-86
2023/09/07 08:15:29;;;;;;;5.55;3.58;;;21.50;83.50;;;;;;4974584;28;20519;-85
2023/09/07 08:17:55;;;;;;;8.20;4.07;;;21.50;83.30;;;;;;4991844;28;20030;-85
2023/09/07 08:20:20;;;;;;;7.03;3.97;;;21.60;83.10;;;;;;4993911;28;20018;-85
2023/09/07 08:22:46;;;;;;;7.00;3.85;;;21.70;82.90;;;;;;4976077;28;20493;-84
2023/09/07 08:25:13;;;;;;;6.47;3.90;;;21.70;82.70;;;;;;4976743;28;20023;-84
2023/09/07 08:27:47;;;;;;;6.18;4.00;;;21.80;82.60;;;;;;4993867;28;20041;-84
2023/09/07 08:30:15;;;;;;;;;;;21.90;82.50;;;;;;4993390;28;20027;-84
2023/09/07 08:32:41;;;;;;;4.25;3.08;;;21.90;82.30;;;;;;4994061;28;19906;-88
2023/09/07 08:35:09;;;;;;;6.15;3.60;;;22.00;82.10;;;;;;4993720;28;20484;-86
2023/09/07 08:37:34;;;;;;;8.57;4.45;;;22.10;81.90;;;;;;4993598;28;20045;-85
2023/09/07 08:40:00;;;;;;;6.78;3.88;;;22.20;81.70;;;;;;4976344;28;20062;-85
2023/09/07 08:42:26;;;;;;;8.27;4.25;;;22.20;81.60;;;;;;4993723;28;20121;-84
2023/09/07 08:44:58;;;;;;;8.25;3.78;;;22.30;81.40;;;;;;4980800;28;20019;-84
2023/09/07 08:47:25;;;;;;;7.75;4.20;;;22.30;81.30;;;;;;4997226;28;20034;-85
2023/09/07 08:49:51;;;;;;;7.20;4.07;;;22.50;81.30;;;;;;4996791;28;20108;-85
2023/09/07 08:52:18;;;;;;;5.47;3.28;;;22.60;81.20;;;;;;4980715;28;20038;-86
2023/09/07 08:54:45;;;;;;;8.27;4.72;;;22.60;81.10;;;;;;4997501;28;20027;-85
2023/09/07 08:57:11;;;;;;;7.60;4.25;;;22.70;80.80;;;;;;4997970;28;20112;-86
2023/09/07 08:59:37;;;;;;;6.60;4.03;;;22.80;80.60;;;;;;4997802;28;20485;-86
2023/09/07 09:02:04;;;;;;;5.82;3.97;;;22.90;80.20;;;;;;4980144;28;20029;-86
2023/09/07 09:04:31;;;;;;;8.20;4.57;;;23.00;79.90;;;;;;4997026;28;20029;-87
2023/09/07 09:06:56;;;;;;;5.97;4.35;;;23.10;79.40;;;;;;4996971;28;20062;-85
2023/09/07 09:09:24;;;;;;;5.88;4.28;;;23.20;79.10;;;;;;4997211;28;20068;-87
2023/09/07 09:11:50;;;;;;;10.68;4.40;;;23.20;78.70;;;;;;4979587;28;20114;-86
2023/09/07 09:14:19;;;;;;;4.97;3.42;;;23.40;78.50;;;;;;4979772;28;20077;-84
2023/09/07 09:16:55;;;;;;;7.22;4.90;;;23.50;78.00;;;;;;4996739;28;20506;-86
2023/09/07 09:19:34;;;;;;;6.03;4.03;;;23.60;77.10;;;;;;4979281;28;20026;-86
2023/09/07 09:22:00;;;;;;;4.65;3.00;;;23.70;76.40;;;;;;4979190;28;20022;-87
2023/09/07 09:24:25;;;;;;;8.43;4.03;;;23.80;76.00;;;;;;4996972;28;20054;-87
2023/09/07 09:26:52;;;;;;;7.50;3.80;;;23.90;75.60;;;;;;4978604;28;20030;-85
2023/09/07 09:29:23;;;;;;;7.80;3.35;;;24.00;75.30;;;;;;4978859;28;20497;-86
2023/09/07 09:31:48;;;;;;;8.85;3.17;;;24.00;74.80;;;;;;4997057;28;20031;-86
2023/09/07 09:34:15;;;;;;;6.53;3.33;;;24.20;74.60;;;;;;4997447;28;20092;-88
2023/09/07 09:36:42;;;;;;;7.32;3.67;;;24.30;74.50;;;;;;4996267;28;20543;-88
2023/09/07 09:39:09;;;;;;;6.22;3.20;;;24.30;74.30;;;;;;4996215;28;20029;-84
2023/09/07 09:41:38;;;;;;;6.50;3.20;;;24.40;74.20;;;;;;4996645;28;20022;-85
2023/09/07 09:44:05;;;;;;;7.55;3.33;;;24.50;74.00;;;;;;4997164;28;20024;-86
2023/09/07 09:46:32;;;;;;;5.93;2.85;;;24.60;73.60;;;;;;4997148;28;20038;-85
2023/09/07 09:48:58;;;;;;;8.07;3.22;;;24.60;73.50;;;;;;4979655;28;20030;-86
2023/09/07 09:51:24;;;;;;;4.95;3.03;;;24.70;73.40;;;;;;4997064;28;20394;-87
2023/09/07 09:53:51;;;;;;;7.80;2.80;;;24.80;73.30;;;;;;4979023;28;20038;-87
2023/09/07 09:56:17;;;;;;;7.57;2.90;;;24.90;73.00;;;;;;4995707;28;20484;-86
2023/09/07 09:58:42;;;;;;;6.45;2.70;;;25.00;72.50;;;;;;4997394;28;20741;-86
2023/09/07 10:01:10;;;;;;;4.20;2.30;;;25.10;72.00;;;;;;4996567;28;20057;-86
2023/09/07 10:03:45;;;;;;;6.85;2.47;;;25.20;72.00;;;;;;4996822;28;20026;-84
2023/09/07 10:06:29;;;;;;;6.35;2.80;;;25.30;71.80;;;;;;4995968;28;20035;-86
2023/09/07 10:09:03;;;;;;;7.82;2.10;;;25.40;71.60;;;;;;4978403;28;20058;-87
2023/09/07 10:11:37;;;;;;;6.40;2.55;;;25.60;71.70;;;;;;4994477;28;20030;-86
2023/09/07 10:14:04;;;;;;;5.32;1.90;;;25.70;71.50;;;;;;4993949;28;20081;-87
2023/09/07 10:16:52;;;;;;;5.13;2.20;;;25.80;71.40;;;;;;4994655;28;20018;-86
2023/09/07 10:19:20;;;;;;;4.10;1.85;;;26.00;70.80;;;;;;4993854;28;20023;-85
2023/09/07 10:21:46;;;;;;;5.25;2.08;;;26.20;70.80;;;;;;4993396;28;20014;-86
2023/09/07 10:24:24;;;;;;;7.07;2.35;;;26.30;70.40;;;;;;4993124;28;20050;-88
2023/09/07 10:27:16;;;;;;;2.95;1.77;;;26.50;69.80;;;;;;4994417;28;20092;-85
2023/09/07 10:29:55;;;;;;;3.97;1.85;;;26.70;69.30;;;;;;4973422;28;20122;-88
2023/09/07 10:32:20;;;;;;;3.72;1.83;;;26.90;69.30;;;;;;4993694;28;20027;-84
2023/09/07 10:34:46;;;;;;;4.80;1.95;;;27.10;68.90;;;;;;4994562;28;20031;-87
2023/09/07 10:37:13;;;;;;;5.10;1.75;;;27.30;68.20;;;;;;4994418;28;20025;-86
2023/09/07 10:39:40;;;;;;;4.30;2.03;;;27.50;67.60;;;;;;4994035;28;20022;-84
2023/09/07 10:42:05;;;;;;;4.40;2.03;;;27.70;67.00;;;;;;4977071;28;20081;-87
2023/09/07 10:44:31;;;;;;;4.03;1.50;;;27.90;66.40;;;;;;4994455;28;20030;-89
2023/09/07 10:46:57;;;;;;;2.90;1.88;;;28.20;65.90;;;;;;4993666;28;20038;-87
2023/09/07 10:49:24;;;;;;;3.08;1.60;;;28.40;65.50;;;;;;4994493;28;20494;-89
2023/09/07 10:51:50;;;;;;;3.35;1.98;;;28.60;64.90;;;;;;4994173;28;20058;-88
2023/09/07 10:54:15;;;;;;;4.05;1.95;;;28.80;64.20;;;;;;4976928;28;20050;-86
2023/09/07 10:56:43;;;;;;;3.63;1.80;;;29.00;63.50;;;;;;4993074;28;20054;-87
2023/09/07 10:59:09;;;;;;;2.95;1.40;;;29.20;62.70;;;;;;4994039;28;20023;-84
2023/09/07 11:01:34;;;;;;;3.70;1.77;;;29.40;62.10;;;;;;4994252;28;20107;-86
2023/09/07 11:04:00;;;;;;;4.13;1.65;;;29.70;61.40;;;;;;4995038;28;20042;-86
2023/09/07 11:06:26;;;;;;;5.18;1.98;;;29.80;60.70;;;;;;4994075;28;20041;-86
2023/09/07 11:08:52;;;;;;;3.85;1.70;;;30.00;60.10;;;;;;4976648;28;20022;-86
2023/09/07 11:11:17;;;;;;;4.68;1.50;;;30.30;59.60;;;;;;4993761;28;20052;-87
2023/09/07 11:13:43;;;;;;;4.28;1.55;;;30.40;59.20;;;;;;4994125;28;20033;-85
2023/09/07 11:16:09;;;;;;;6.68;1.50;;;30.70;59.00;;;;;;4991995;28;20022;-85
2023/09/07 11:18:35;;;;;;;3.85;1.35;;;30.90;58.50;;;;;;4993163;28;20026;-86
2023/09/07 11:21:03;;;;;;;3.28;1.50;;;31.20;58.00;;;;;;4994062;28;20061;-86
2023/09/07 11:23:35;;;;;;;3.17;1.70;;;31.40;57.50;;;;;;4972963;28;20464;-86
2023/09/07 11:26:08;;;;;;;2.72;1.35;;;31.60;57.10;;;;;;4972787;28;20155;-86
2023/09/07 11:28:33;;;;;;;2.73;1.50;;;31.90;56.70;;;;;;4972619;28;20050;-85
2023/09/07 11:31:00;;;;;;;4.03;1.42;;;32.10;56.30;;;;;;4972546;28;20462;-85
2023/09/07 11:33:27;;;;;;;4.38;1.83;;;32.30;55.80;;;;;;4972794;28;20019;-85
2023/09/07 11:35:55;;;;;;;6.20;1.50;;;32.60;55.50;;;;;;4974148;28;20369;-87
2023/09/07 11:38:22;;;;;;;3.22;1.60;;;32.80;55.00;;;;;;4974065;28;20441;-86
2023/09/07 11:40:47;;;;;;;3.28;1.58;;;33.10;54.50;;;;;;4972402;28;20034;-86
2023/09/07 11:43:14;;;;;;;3.45;1.60;;;33.40;54.60;;;;;;4973755;28;20022;-88
2023/09/07 11:45:41;;;;;;;3.00;1.65;;;33.60;53.50;;;;;;4972509;28;20155;-85
2023/09/07 11:48:09;;;;;;;3.50;1.50;;;33.80;53.10;;;;;;4973623;28;20023;-87
2023/09/07 11:50:36;;;;;;;3.00;1.63;;;34.00;52.70;;;;;;4973736;28;20091;-87
2023/09/07 11:53:02;;;;;;;2.63;1.17;;;34.20;52.00;;;;;;4973658;28;20070;-84
2023/09/07 11:55:28;;;;;;;3.10;1.45;;;34.40;52.10;;;;;;4972025;28;20023;-87
2023/09/07 11:57:54;;;;;;;7.00;1.88;;;34.60;51.00;;;;;;4972646;28;20038;-87
2023/09/07 12:00:19;;;;;;;5.30;1.50;;;34.70;50.60;;;;;;4972376;28;20022;-85
2023/09/07 12:02:45;;;;;;;5.95;1.40;;;34.90;50.40;;;;;;4973712;28;20034;-84
2023/09/07 12:05:14;;;;;;;3.80;1.58;;;35.10;50.00;;;;;;4972572;28;20520;-85
2023/09/07 12:07:40;;;;;;;3.35;1.20;;;35.30;49.80;;;;;;4972121;28;20061;-86
2023/09/07 12:10:10;;;;;;;3.08;1.63;;;35.50;49.60;;;;;;4973683;28;20027;-86
2023/09/07 12:12:38;;;;;;;2.88;1.50;;;35.80;49.30;;;;;;4972543;28;20519;-85
2023/09/07 12:15:04;;;;;;;2.50;1.52;;;36.00;48.90;;;;;;4972364;28;20022;-86
2023/09/07 12:17:31;;;;;;;3.60;1.60;;;36.20;48.50;;;;;;4974788;28;20102;-87
2023/09/07 12:19:56;;;;;;;2.97;1.15;;;36.40;48.20;;;;;;4960877;28;20528;-83
2023/09/07 12:22:22;;;;;;;3.63;1.75;;;36.60;47.80;;;;;;4978619;28;20110;-86
2023/09/07 12:24:48;;;;;;;3.58;1.45;;;36.70;47.30;;;;;;5006218;28;20045;-86
2023/09/07 12:27:13;;;;;;;2.30;1.40;;;36.90;46.90;;;;;;5004263;28;20030;-87
2023/09/07 12:29:39;;;;;;;3.15;1.63;;;37.10;46.70;;;;;;4986442;28;20022;-87
2023/09/07 12:32:05;;;;;;;3.80;1.67;;;37.30;46.40;;;;;;5005859;28;20027;-87
2023/09/07 12:34:31;;;;;;;2.83;1.48;;;37.50;46.10;;;;;;5004825;28;20023;-85
2023/09/07 12:36:56;;;;;;;6.40;2.05;;;37.60;45.70;;;;;;5002276;28;20030;-87
2023/09/07 12:39:22;;;;;;;4.40;1.50;;;37.80;46.20;;;;;;5001750;28;20030;-85
2023/09/07 12:41:47;;;;;;;2.40;1.40;;;38.00;45.30;;;;;;5013956;28;20090;-86
2023/09/07 12:44:13;;;;;;;4.88;1.60;;;38.20;45.10;;;;;;5003598;28;20117;-85